Terminal Aerodrome Forecast
Issued by NWS Jackson, KY

Home | Current Version | Previous Version | Text Only | Print | Product List | Glossary On
Versions: 1 2 3 4 5 6 7 8 9 10 11 12 13 14 15 16 17 18 19 20 21 22 23
285
FTUS43 KJKL 161738
TAFLOZ
TAF
KLOZ 161738Z 1618/1718 VRB06KT P6SM BKN080
     FM170300 18004KT P6SM VCSH OVC070
     FM170700 19007KT 3SM SHRA BR OVC035
     FM170900 19007KT 3SM SHRA BR OVC015
     FM171100 19008KT 3SM SHRA BR VCTS OVC010CB
     FM171600 21012G20KT P6SM -SHRA VCTS OVC008CB=

USA.gov is the U.S. government's official web portal to all federal, state and local government web resources and services.